Pawcatuck, Connecticut
Current Conditions -  °F | °C
As of 2:53 PM on Friday 21 Nov 2014 (Local Time) from KWST Reporting Station
Clear Clear  
Wind Chill: 26°   Ceiling: Unl
Heat Index: 35°   Visibility: 10mi
Dew Point:   Wind: 14mph
Humidity: 31%   Direction: 320°NW
Pressure: 30.25"   Gusts: 30mph
Location:  41.38°N, 71.84°W
Report Text: KWST 211953Z AUTO 32012G26KT 240V340 10SM CLR 02/M14 A3025 RMK AO2 PK WND 33026/1945 SLP243 T00171139
Loading
Personal Weather Stations






























Interactive Weather Map New forecast layout! Learn more

10-Day Weather Forecast

Advertisements
Track Severe Weather on mobile